Leon, Minnesota
Current Conditions -  °F | °C
As of 12:35 AM on Thursday 23 Oct 2014 (Local Time) from KFSE Reporting Station
Clear Clear  
Wind Chill: 50°   Ceiling: Unl
Heat Index: 50°   Visibility: 7mi
Dew Point: 48°   Wind: 6mph
Humidity: 94%   Direction: 190°S
Pressure: 29.89"   Gusts: NA
Location:  47.7926°N, 95.3062°W
Report Text: KFSE 230535Z AUTO 19005KT 7SM CLR 10/09 A2989 RMK AO2
Loading
Personal Weather Stations






























Interactive Weather Map
Tropical Storm Tracking
New forecast layout! Learn more

10-Day Weather Forecast

Advertisements
Track Severe Weather on mobile